createdAt,value
2024-04-17T00:02:31.000Z,4.31
2024-04-17T00:07:25.000Z,4.31
2024-04-17T00:12:19.000Z,4.31
2024-04-17T00:17:13.000Z,4.31
2024-04-17T00:22:07.000Z,4.31
2024-04-17T00:27:02.000Z,4.31
2024-04-17T00:31:56.000Z,4.31
2024-04-17T00:36:50.000Z,4.31
2024-04-17T00:41:45.000Z,4.31
2024-04-17T00:46:39.000Z,4.31
2024-04-17T00:51:32.000Z,4.31
2024-04-17T00:56:26.000Z,4.30
2024-04-17T01:01:20.000Z,4.31
2024-04-17T01:06:14.000Z,4.30
2024-04-17T01:11:08.000Z,4.30
2024-04-17T01:16:01.000Z,4.30
2024-04-17T01:20:55.000Z,4.30
2024-04-17T01:25:49.000Z,4.30
2024-04-17T01:30:43.000Z,4.30
2024-04-17T01:35:38.000Z,4.30
2024-04-17T01:40:33.000Z,4.30
2024-04-17T01:45:26.000Z,4.30
2024-04-17T01:50:20.000Z,4.30
2024-04-17T01:55:14.000Z,4.29
2024-04-17T02:00:08.000Z,4.30
2024-04-17T02:05:02.000Z,4.30
2024-04-17T02:09:57.000Z,4.29
2024-04-17T02:14:51.000Z,4.29
2024-04-17T02:19:45.000Z,4.30
2024-04-17T02:24:39.000Z,4.29
2024-04-17T02:29:33.000Z,4.29
2024-04-17T02:34:29.000Z,4.29
2024-04-17T02:39:21.000Z,4.29
2024-04-17T02:44:15.000Z,4.29
2024-04-17T02:49:07.000Z,4.29
2024-04-17T02:54:01.000Z,4.29
2024-04-17T02:58:55.000Z,4.29
2024-04-17T03:03:49.000Z,4.29
2024-04-17T03:08:43.000Z,4.29
2024-04-17T03:13:37.000Z,4.29
2024-04-17T03:18:32.000Z,4.29
2024-04-17T03:23:25.000Z,4.29
2024-04-17T03:28:20.000Z,4.29
2024-04-17T03:33:14.000Z,4.29
2024-04-17T03:38:08.000Z,4.29
2024-04-17T03:43:02.000Z,4.28
2024-04-17T03:47:56.000Z,4.28
2024-04-17T03:52:50.000Z,4.28
2024-04-17T03:57:44.000Z,4.28
2024-04-17T04:02:39.000Z,4.28
2024-04-17T04:07:33.000Z,4.28
2024-04-17T04:12:27.000Z,4.28
2024-04-17T04:17:21.000Z,4.28
2024-04-17T04:22:15.000Z,4.28
2024-04-17T04:27:09.000Z,4.28
2024-04-17T04:32:03.000Z,4.28
2024-04-17T04:36:57.000Z,4.28
2024-04-17T04:41:51.000Z,4.28
2024-04-17T04:46:45.000Z,4.28
2024-04-17T04:51:39.000Z,4.28
2024-04-17T04:56:33.000Z,4.28
2024-04-17T05:01:27.000Z,4.28
2024-04-17T05:06:21.000Z,4.28
2024-04-17T05:11:15.000Z,4.28
2024-04-17T05:16:09.000Z,4.28
2024-04-17T05:21:03.000Z,4.28
2024-04-17T05:25:57.000Z,4.28
2024-04-17T05:30:52.000Z,4.28
2024-04-17T05:35:48.000Z,4.28
2024-04-17T05:40:41.000Z,4.28
2024-04-17T05:45:35.000Z,4.28
2024-04-17T05:50:28.000Z,4.28
2024-04-17T05:55:22.000Z,4.28
2024-04-17T06:00:17.000Z,4.28
2024-04-17T06:05:11.000Z,4.28
2024-04-17T06:10:04.000Z,4.28
2024-04-17T06:14:58.000Z,4.28
2024-04-17T06:19:53.000Z,4.29
2024-04-17T06:24:47.000Z,4.28
2024-04-17T06:29:42.000Z,4.29
2024-04-17T06:34:36.000Z,4.29
2024-04-17T06:39:30.000Z,4.29
2024-04-17T06:44:25.000Z,4.30
2024-04-17T06:49:19.000Z,4.29
2024-04-17T06:54:14.000Z,4.29
2024-04-17T06:59:08.000Z,4.30
2024-04-17T07:04:02.000Z,4.30
2024-04-17T07:08:56.000Z,4.30
2024-04-17T07:13:50.000Z,4.30
2024-04-17T07:18:46.000Z,4.31
2024-04-17T07:23:40.000Z,4.30
2024-04-17T07:28:34.000Z,4.30
2024-04-17T07:33:28.000Z,4.31
2024-04-17T07:38:22.000Z,4.31
2024-04-17T07:43:17.000Z,4.31
2024-04-17T07:48:11.000Z,4.31
2024-04-17T07:53:05.000Z,4.32
2024-04-17T07:57:59.000Z,4.32
2024-04-17T08:03:08.000Z,4.32
2024-04-17T08:07:48.000Z,4.32
2024-04-17T08:12:42.000Z,4.32
2024-04-17T08:17:35.000Z,4.32
2024-04-17T08:22:29.000Z,4.32
2024-04-17T08:27:23.000Z,4.32
2024-04-17T08:32:17.000Z,4.32
2024-04-17T08:37:11.000Z,4.32
2024-04-17T08:42:04.000Z,4.32
2024-04-17T08:46:58.000Z,4.32
2024-04-17T08:51:52.000Z,4.32
2024-04-17T08:56:47.000Z,4.33
2024-04-17T09:01:41.000Z,4.32
2024-04-17T09:06:35.000Z,4.32
2024-04-17T09:11:29.000Z,4.32
2024-04-17T09:16:25.000Z,4.32
2024-04-17T09:21:16.000Z,4.32
2024-04-17T09:26:10.000Z,4.32
2024-04-17T09:31:04.000Z,4.33
2024-04-17T09:35:58.000Z,4.32
2024-04-17T09:40:53.000Z,4.32
2024-04-17T09:45:47.000Z,4.32
2024-04-17T09:50:41.000Z,4.32
2024-04-17T09:55:35.000Z,4.31
2024-04-17T10:00:28.000Z,4.32
2024-04-17T10:05:23.000Z,4.32
2024-04-17T10:10:17.000Z,4.34
2024-04-17T10:15:11.000Z,4.35
2024-04-17T10:20:05.000Z,4.33
2024-04-17T10:24:59.000Z,4.32
2024-04-17T10:29:51.000Z,4.32
2024-04-17T10:34:45.000Z,4.32
2024-04-17T10:39:38.000Z,4.33
2024-04-17T10:44:32.000Z,4.32
2024-04-17T10:49:26.000Z,4.34
2024-04-17T10:54:20.000Z,4.33
2024-04-17T10:59:15.000Z,4.34
2024-04-17T11:04:09.000Z,4.32
2024-04-17T11:09:03.000Z,4.32
2024-04-17T11:13:57.000Z,4.34
2024-04-17T11:18:50.000Z,4.34
2024-04-17T11:23:44.000Z,4.33
2024-04-17T11:28:38.000Z,4.33
2024-04-17T11:33:32.000Z,4.34
2024-04-17T11:38:26.000Z,4.35
2024-04-17T11:43:19.000Z,4.35
2024-04-17T11:48:13.000Z,4.36
2024-04-17T11:53:08.000Z,4.36
2024-04-17T11:58:03.000Z,4.36
2024-04-17T12:03:11.000Z,4.35
2024-04-17T12:07:51.000Z,4.34
2024-04-17T12:12:45.000Z,4.33
2024-04-17T12:17:39.000Z,4.34
2024-04-17T12:22:33.000Z,4.36
2024-04-17T12:27:28.000Z,4.36
2024-04-17T12:32:23.000Z,4.39
2024-04-17T12:37:16.000Z,4.37
2024-04-17T12:42:11.000Z,4.41
2024-04-17T12:47:06.000Z,4.41
2024-04-17T12:52:00.000Z,4.39
2024-04-17T12:56:54.000Z,4.38
2024-04-17T13:01:47.000Z,4.38
2024-04-17T13:06:41.000Z,4.40
2024-04-17T13:11:36.000Z,4.38
2024-04-17T13:16:30.000Z,4.38
2024-04-17T13:21:23.000Z,4.38
2024-04-17T13:26:17.000Z,4.40
2024-04-17T13:31:11.000Z,4.39
2024-04-17T13:36:05.000Z,4.39
2024-04-17T13:40:59.000Z,4.43
2024-04-17T13:45:53.000Z,4.45
2024-04-17T13:50:49.000Z,4.41
2024-04-17T13:55:44.000Z,4.40
2024-04-17T14:00:36.000Z,4.40
2024-04-17T14:05:30.000Z,4.42
2024-04-17T14:10:24.000Z,4.48
2024-04-17T14:15:20.000Z,4.50
2024-04-17T14:20:16.000Z,4.50
2024-04-17T14:25:10.000Z,4.43
2024-04-17T14:30:03.000Z,4.43
2024-04-17T14:34:56.000Z,4.44
2024-04-17T14:39:49.000Z,4.46
2024-04-17T14:44:43.000Z,4.48
2024-04-17T14:49:38.000Z,4.50
2024-04-17T14:54:39.000Z,4.51
2024-04-17T14:59:26.000Z,4.52
2024-04-17T15:04:21.000Z,4.53
2024-04-17T15:09:16.000Z,4.53
2024-04-17T15:14:11.000Z,4.54
2024-04-17T15:19:05.000Z,4.54
2024-04-17T15:23:59.000Z,4.54
2024-04-17T15:28:51.000Z,4.52
2024-04-17T15:33:45.000Z,4.51
2024-04-17T15:38:37.000Z,4.50
2024-04-17T15:43:30.000Z,4.51
2024-04-17T15:48:25.000Z,4.54
2024-04-17T15:53:14.000Z,4.55
2024-04-17T15:58:08.000Z,4.54
2024-04-17T16:03:18.000Z,4.54
2024-04-17T16:07:56.000Z,4.54
2024-04-17T16:12:50.000Z,4.52
2024-04-17T16:17:43.000Z,4.52
2024-04-17T16:22:36.000Z,4.52
2024-04-17T16:27:30.000Z,4.52
2024-04-17T16:32:23.000Z,4.52
2024-04-17T16:37:17.000Z,4.51
2024-04-17T16:42:10.000Z,4.51
2024-04-17T16:47:03.000Z,4.52
2024-04-17T16:51:58.000Z,4.52
2024-04-17T16:56:51.000Z,4.52
2024-04-17T17:01:45.000Z,4.52
2024-04-17T17:06:39.000Z,4.53
2024-04-17T17:11:33.000Z,4.53
2024-04-17T17:16:27.000Z,4.53
2024-04-17T17:21:22.000Z,4.52
2024-04-17T17:26:15.000Z,4.52
2024-04-17T17:31:09.000Z,4.52
2024-04-17T17:36:01.000Z,4.52
2024-04-17T17:40:54.000Z,4.52
2024-04-17T17:45:48.000Z,4.51
2024-04-17T17:50:41.000Z,4.51
2024-04-17T17:55:35.000Z,4.51
2024-04-17T18:00:29.000Z,4.51
2024-04-17T18:05:23.000Z,4.51
2024-04-17T18:10:17.000Z,4.50
2024-04-17T18:15:11.000Z,4.50
2024-04-17T18:20:05.000Z,4.50
2024-04-17T18:24:59.000Z,4.50
2024-04-17T18:29:53.000Z,4.50
2024-04-17T18:34:47.000Z,4.50
2024-04-17T18:39:41.000Z,4.50
2024-04-17T18:44:35.000Z,4.50
2024-04-17T18:49:28.000Z,4.50
2024-04-17T18:54:22.000Z,4.49
2024-04-17T18:59:16.000Z,4.49
2024-04-17T19:04:10.000Z,4.49
2024-04-17T19:09:04.000Z,4.49
2024-04-17T19:13:57.000Z,4.49
2024-04-17T19:18:52.000Z,4.49
2024-04-17T19:23:46.000Z,4.49
2024-04-17T19:28:40.000Z,4.49
2024-04-17T19:33:35.000Z,4.49
2024-04-17T19:38:29.000Z,4.48
2024-04-17T19:43:23.000Z,4.48
2024-04-17T19:48:17.000Z,4.48
2024-04-17T19:53:11.000Z,4.48
2024-04-17T19:58:05.000Z,4.48
2024-04-17T20:03:02.000Z,4.48
2024-04-17T20:07:53.000Z,4.48
2024-04-17T20:12:47.000Z,4.48
2024-04-17T20:17:42.000Z,4.48
2024-04-17T20:22:36.000Z,4.48
2024-04-17T20:27:29.000Z,4.48
2024-04-17T20:32:23.000Z,4.48
2024-04-17T20:37:17.000Z,4.48
2024-04-17T20:42:10.000Z,4.48
2024-04-17T20:47:04.000Z,4.48
2024-04-17T20:51:58.000Z,4.48
2024-04-17T20:56:52.000Z,4.48
2024-04-17T21:01:46.000Z,4.48
2024-04-17T21:06:40.000Z,4.48
2024-04-17T21:11:34.000Z,4.48
2024-04-17T21:16:27.000Z,4.48
2024-04-17T21:21:22.000Z,4.48
2024-04-17T21:26:16.000Z,4.48
2024-04-17T21:31:10.000Z,4.48
2024-04-17T21:36:04.000Z,4.47
2024-04-17T21:40:58.000Z,4.47
2024-04-17T21:45:52.000Z,4.48
2024-04-17T21:50:47.000Z,4.47
2024-04-17T21:55:41.000Z,4.47
2024-04-17T22:00:35.000Z,4.47
2024-04-17T22:05:29.000Z,4.48
2024-04-17T22:10:23.000Z,4.47
2024-04-17T22:15:17.000Z,4.47
2024-04-17T22:20:11.000Z,4.47
2024-04-17T22:25:06.000Z,4.46
2024-04-17T22:30:00.000Z,4.47
2024-04-17T22:34:54.000Z,4.47
2024-04-17T22:39:48.000Z,4.46
2024-04-17T22:44:42.000Z,4.46
2024-04-17T22:49:36.000Z,4.46
2024-04-17T22:54:31.000Z,4.46
2024-04-17T22:59:25.000Z,4.46
2024-04-17T23:04:19.000Z,4.46
2024-04-17T23:09:14.000Z,4.46
2024-04-17T23:14:08.000Z,4.45
2024-04-17T23:19:03.000Z,4.46
2024-04-17T23:23:57.000Z,4.46
2024-04-17T23:28:51.000Z,4.45
2024-04-17T23:33:45.000Z,4.45
2024-04-17T23:38:39.000Z,4.46
2024-04-17T23:43:33.000Z,4.45
2024-04-17T23:48:27.000Z,4.45
2024-04-17T23:53:21.000Z,4.45
2024-04-17T23:58:15.000Z,4.45
